Upton, Utah
Current Conditions -  °F | °C
As of 10:53 AM on Saturday 25 Oct 2014 (Local Time) from KEVW Reporting Station
Clear Clear  
Wind Chill: 60°   Ceiling: Unl
Heat Index: 60°   Visibility: 10mi
Dew Point: 26°   Wind: 9mph
Humidity: 27%   Direction: 230°SW
Pressure: 30.22"   Gusts: NA
Location:  40.9431°N, 111.212°W
Report Text: KEVW 251653Z AUTO 23008KT 10SM CLR 16/M03 A3022 RMK AO2 SLP161 T01561033 TSNO
Loading
Personal Weather Stations






























Interactive Weather Map
Tropical Storm Tracking
New forecast layout! Learn more

10-Day Weather Forecast

Advertisements
Track Severe Weather on mobile